sensor_id;sensor_type;location;lat;lon;timestamp;temperature;humidity
15274;DHT22;7738;49.532;11.156;2023-11-19T00:04:40;3.90;99.90
15274;DHT22;7738;49.532;11.156;2023-11-19T00:19:46;4.00;99.90
15274;DHT22;7738;49.532;11.156;2023-11-19T00:34:53;3.80;99.90
15274;DHT22;7738;49.532;11.156;2023-11-19T00:50:01;4.00;99.90
15274;DHT22;7738;49.532;11.156;2023-11-19T01:00:06;3.90;99.90
15274;DHT22;7738;49.532;11.156;2023-11-19T01:05:21;4.10;99.90
15274;DHT22;7738;49.532;11.156;2023-11-19T01:20:29;4.10;99.90
15274;DHT22;7738;49.532;11.156;2023-11-19T01:35:37;4.00;99.90
15274;DHT22;7738;49.532;11.156;2023-11-19T01:48:15;4.30;99.90
15274;DHT22;7738;49.532;11.156;2023-11-19T01:50:48;4.20;99.90
15274;DHT22;7738;49.532;11.156;2023-11-19T01:56:00;4.30;99.90
15274;DHT22;7738;49.532;11.156;2023-11-19T02:03:33;4.30;99.90
15274;DHT22;7738;49.532;11.156;2023-11-19T02:06:07;4.20;99.90
15274;DHT22;7738;49.532;11.156;2023-11-19T02:08:39;4.20;99.90
15274;DHT22;7738;49.532;11.156;2023-11-19T02:11:09;4.20;99.90
15274;DHT22;7738;49.532;11.156;2023-11-19T02:21:15;4.30;99.90
15274;DHT22;7738;49.532;11.156;2023-11-19T02:26:20;4.30;99.90
15274;DHT22;7738;49.532;11.156;2023-11-19T02:28:55;4.20;99.90
15274;DHT22;7738;49.532;11.156;2023-11-19T02:44:04;4.30;99.90
15274;DHT22;7738;49.532;11.156;2023-11-19T02:59:10;4.40;99.90
15274;DHT22;7738;49.532;11.156;2023-11-19T03:14:36;4.50;99.90
15274;DHT22;7738;49.532;11.156;2023-11-19T03:29:45;4.50;99.90
15274;DHT22;7738;49.532;11.156;2023-11-19T03:42:19;4.60;99.90
15274;DHT22;7738;49.532;11.156;2023-11-19T03:44:52;4.50;99.90
15274;DHT22;7738;49.532;11.156;2023-11-19T03:47:22;4.50;99.90
15274;DHT22;7738;49.532;11.156;2023-11-19T03:59:58;4.70;99.90
15274;DHT22;7738;49.532;11.156;2023-11-19T04:05:09;4.60;99.90
15274;DHT22;7738;49.532;11.156;2023-11-19T04:15:15;4.70;99.90
15274;DHT22;7738;49.532;11.156;2023-11-19T04:22:46;4.80;99.90
15274;DHT22;7738;49.532;11.156;2023-11-19T04:27:49;4.70;99.90
15274;DHT22;7738;49.532;11.156;2023-11-19T04:30:22;4.70;99.90
15274;DHT22;7738;49.532;11.156;2023-11-19T04:45:28;5.90;99.90
15274;DHT22;7738;49.532;11.156;2023-11-19T05:00:33;4.90;99.90
15274;DHT22;7738;49.532;11.156;2023-11-19T05:05:35;5.00;99.90
15274;DHT22;7738;49.532;11.156;2023-11-19T05:15:40;5.30;99.90
15274;DHT22;7738;49.532;11.156;2023-11-19T05:30:48;5.40;99.90
15274;DHT22;7738;49.532;11.156;2023-11-19T05:45:53;5.50;99.90
15274;DHT22;7738;49.532;11.156;2023-11-19T06:00:59;5.50;99.90
15274;DHT22;7738;49.532;11.156;2023-11-19T06:16:07;5.60;99.90
15274;DHT22;7738;49.532;11.156;2023-11-19T06:31:14;5.90;99.90
15274;DHT22;7738;49.532;11.156;2023-11-19T06:46:20;6.10;99.90
15274;DHT22;7738;49.532;11.156;2023-11-19T07:01:25;6.20;99.90
15274;DHT22;7738;49.532;11.156;2023-11-19T07:06:28;6.20;99.90
15274;DHT22;7738;49.532;11.156;2023-11-19T07:14:08;6.40;99.90
15274;DHT22;7738;49.532;11.156;2023-11-19T07:16:42;6.40;99.90
15274;DHT22;7738;49.532;11.156;2023-11-19T07:19:13;6.50;99.90
15274;DHT22;7738;49.532;11.156;2023-11-19T07:21:44;6.50;99.90
15274;DHT22;7738;49.532;11.156;2023-11-19T07:31:51;6.60;99.90
15274;DHT22;7738;49.532;11.156;2023-11-19T07:47:02;6.90;99.90
15274;DHT22;7738;49.532;11.156;2023-11-19T07:52:03;7.00;99.90
15274;DHT22;7738;49.532;11.156;2023-11-19T07:54:48;7.00;99.90
15274;DHT22;7738;49.532;11.156;2023-11-19T08:02:24;7.10;99.90
15274;DHT22;7738;49.532;11.156;2023-11-19T08:17:29;7.40;99.90
15274;DHT22;7738;49.532;11.156;2023-11-19T08:30:05;7.50;99.90
15274;DHT22;7738;49.532;11.156;2023-11-19T08:32:38;7.60;99.90
15274;DHT22;7738;49.532;11.156;2023-11-19T08:40:11;7.70;99.90
15274;DHT22;7738;49.532;11.156;2023-11-19T08:47:45;7.80;99.90
15274;DHT22;7738;49.532;11.156;2023-11-19T09:00:18;7.90;99.90
15274;DHT22;7738;49.532;11.156;2023-11-19T09:02:51;8.10;99.90
15274;DHT22;7738;49.532;11.156;2023-11-19T09:17:58;8.50;99.90
15274;DHT22;7738;49.532;11.156;2023-11-19T09:33:13;9.30;99.90
15274;DHT22;7738;49.532;11.156;2023-11-19T09:43:15;9.60;99.90
15274;DHT22;7738;49.532;11.156;2023-11-19T09:45:48;9.70;99.90
15274;DHT22;7738;49.532;11.156;2023-11-19T09:48:24;9.70;99.90
15274;DHT22;7738;49.532;11.156;2023-11-19T09:55:56;10.00;99.90
15274;DHT22;7738;49.532;11.156;2023-11-19T09:58:27;10.00;99.90
15274;DHT22;7738;49.532;11.156;2023-11-19T10:00:57;10.20;99.90
15274;DHT22;7738;49.532;11.156;2023-11-19T10:03:35;10.40;99.90
15274;DHT22;7738;49.532;11.156;2023-11-19T10:06:08;11.80;99.90
15274;DHT22;7738;49.532;11.156;2023-11-19T10:08:39;10.50;99.90
15274;DHT22;7738;49.532;11.156;2023-11-19T10:16:15;10.60;99.90
15274;DHT22;7738;49.532;11.156;2023-11-19T10:18:49;10.60;99.90
15274;DHT22;7738;49.532;11.156;2023-11-19T10:23:51;10.70;99.90
15274;DHT22;7738;49.532;11.156;2023-11-19T10:28:55;10.70;99.90
15274;DHT22;7738;49.532;11.156;2023-11-19T10:33:58;10.90;99.90
15274;DHT22;7738;49.532;11.156;2023-11-19T10:36:39;10.80;99.90
15274;DHT22;7738;49.532;11.156;2023-11-19T10:39:11;12.70;99.90
15274;DHT22;7738;49.532;11.156;2023-11-19T10:41:41;10.80;99.90
15274;DHT22;7738;49.532;11.156;2023-11-19T10:44:11;10.70;99.90
15274;DHT22;7738;49.532;11.156;2023-11-19T10:46:42;10.70;99.90
15274;DHT22;7738;49.532;11.156;2023-11-19T10:49:14;10.70;99.90
15274;DHT22;7738;49.532;11.156;2023-11-19T10:51:45;10.60;99.90
15274;DHT22;7738;49.532;11.156;2023-11-19T10:54:19;11.60;99.90
15274;DHT22;7738;49.532;11.156;2023-11-19T10:56:54;10.60;99.90
15274;DHT22;7738;49.532;11.156;2023-11-19T10:59:27;10.60;99.90
15274;DHT22;7738;49.532;11.156;2023-11-19T11:02:03;10.60;99.90
15274;DHT22;7738;49.532;11.156;2023-11-19T11:04:40;10.60;99.90
15274;DHT22;7738;49.532;11.156;2023-11-19T11:07:10;10.60;99.90
15274;DHT22;7738;49.532;11.156;2023-11-19T11:09:42;10.70;99.90
15274;DHT22;7738;49.532;11.156;2023-11-19T11:12:13;10.70;99.90
15274;DHT22;7738;49.532;11.156;2023-11-19T11:14:46;10.80;99.90
15274;DHT22;7738;49.532;11.156;2023-11-19T11:17:17;10.80;99.90
15274;DHT22;7738;49.532;11.156;2023-11-19T11:19:51;10.80;99.90
15274;DHT22;7738;49.532;11.156;2023-11-19T11:22:22;10.90;99.90
15274;DHT22;7738;49.532;11.156;2023-11-19T11:25:15;10.90;99.90
15274;DHT22;7738;49.532;11.156;2023-11-19T11:30:53;11.10;99.90
15274;DHT22;7738;49.532;11.156;2023-11-19T11:33:34;11.30;99.90
15274;DHT22;7738;49.532;11.156;2023-11-19T11:36:15;11.40;99.90
15274;DHT22;7738;49.532;11.156;2023-11-19T11:38:48;11.50;99.90
15274;DHT22;7738;49.532;11.156;2023-11-19T11:41:20;11.70;99.90
15274;DHT22;7738;49.532;11.156;2023-11-19T11:43:56;11.80;99.90
15274;DHT22;7738;49.532;11.156;2023-11-19T11:46:55;11.80;99.90
15274;DHT22;7738;49.532;11.156;2023-11-19T11:49:30;11.90;99.90
15274;DHT22;7738;49.532;11.156;2023-11-19T11:52:04;11.80;99.90
15274;DHT22;7738;49.532;11.156;2023-11-19T11:54:35;11.90;99.90
15274;DHT22;7738;49.532;11.156;2023-11-19T11:57:10;11.90;99.90
15274;DHT22;7738;49.532;11.156;2023-11-19T11:59:49;11.80;99.90
15274;DHT22;7738;49.532;11.156;2023-11-19T12:02:20;11.80;99.90
15274;DHT22;7738;49.532;11.156;2023-11-19T12:04:52;11.80;99.90
15274;DHT22;7738;49.532;11.156;2023-11-19T12:07:25;11.80;99.90
15274;DHT22;7738;49.532;11.156;2023-11-19T12:10:08;11.80;99.90
15274;DHT22;7738;49.532;11.156;2023-11-19T12:12:40;11.70;99.90
15274;DHT22;7738;49.532;11.156;2023-11-19T12:15:10;11.50;99.90
15274;DHT22;7738;49.532;11.156;2023-11-19T12:17:49;11.60;99.90
15274;DHT22;7738;49.532;11.156;2023-11-19T12:20:20;11.60;99.90
15274;DHT22;7738;49.532;11.156;2023-11-19T12:22:56;11.50;99.90
15274;DHT22;7738;49.532;11.156;2023-11-19T12:25:27;11.60;99.90
15274;DHT22;7738;49.532;11.156;2023-11-19T12:27:57;11.40;99.90
15274;DHT22;7738;49.532;11.156;2023-11-19T12:30:27;11.30;99.90
15274;DHT22;7738;49.532;11.156;2023-11-19T12:32:57;11.30;99.90
15274;DHT22;7738;49.532;11.156;2023-11-19T12:35:27;11.30;99.90
15274;DHT22;7738;49.532;11.156;2023-11-19T12:38:00;11.10;99.90
15274;DHT22;7738;49.532;11.156;2023-11-19T12:40:30;11.00;99.90
15274;DHT22;7738;49.532;11.156;2023-11-19T12:43:00;10.90;99.90
15274;DHT22;7738;49.532;11.156;2023-11-19T12:45:34;10.80;99.90
15274;DHT22;7738;49.532;11.156;2023-11-19T12:48:07;10.70;99.90
15274;DHT22;7738;49.532;11.156;2023-11-19T12:50:50;10.70;99.90
15274;DHT22;7738;49.532;11.156;2023-11-19T12:53:25;10.60;99.90
15274;DHT22;7738;49.532;11.156;2023-11-19T12:55:56;10.70;99.90
15274;DHT22;7738;49.532;11.156;2023-11-19T12:58:37;10.80;99.90
15274;DHT22;7738;49.532;11.156;2023-11-19T13:01:09;10.80;99.90
15274;DHT22;7738;49.532;11.156;2023-11-19T13:03:39;10.80;99.90
15274;DHT22;7738;49.532;11.156;2023-11-19T13:06:11;11.00;99.90
15274;DHT22;7738;49.532;11.156;2023-11-19T13:08:46;11.20;99.90
15274;DHT22;7738;49.532;11.156;2023-11-19T13:11:30;11.20;99.90
15274;DHT22;7738;49.532;11.156;2023-11-19T13:14:04;11.20;99.90
15274;DHT22;7738;49.532;11.156;2023-11-19T13:16:37;11.40;99.90
15274;DHT22;7738;49.532;11.156;2023-11-19T13:19:10;11.60;99.90
15274;DHT22;7738;49.532;11.156;2023-11-19T13:21:40;11.80;99.90
15274;DHT22;7738;49.532;11.156;2023-11-19T13:24:15;11.70;99.90
15274;DHT22;7738;49.532;11.156;2023-11-19T13:26:45;11.70;99.90
15274;DHT22;7738;49.532;11.156;2023-11-19T13:29:16;11.60;99.90
15274;DHT22;7738;49.532;11.156;2023-11-19T13:31:46;11.50;99.90
15274;DHT22;7738;49.532;11.156;2023-11-19T13:34:17;11.50;99.90
15274;DHT22;7738;49.532;11.156;2023-11-19T13:36:47;12.40;99.90
15274;DHT22;7738;49.532;11.156;2023-11-19T13:39:19;11.40;99.90
15274;DHT22;7738;49.532;11.156;2023-11-19T13:41:51;11.30;99.90
15274;DHT22;7738;49.532;11.156;2023-11-19T13:44:39;11.30;99.90
15274;DHT22;7738;49.532;11.156;2023-11-19T13:47:10;11.20;99.90
15274;DHT22;7738;49.532;11.156;2023-11-19T13:49:41;11.20;99.90
15274;DHT22;7738;49.532;11.156;2023-11-19T13:52:11;11.10;99.90
15274;DHT22;7738;49.532;11.156;2023-11-19T13:54:44;11.10;99.90
15274;DHT22;7738;49.532;11.156;2023-11-19T13:57:14;11.10;99.90
15274;DHT22;7738;49.532;11.156;2023-11-19T13:59:44;10.50;99.90
15274;DHT22;7738;49.532;11.156;2023-11-19T14:02:14;11.00;99.90
15274;DHT22;7738;49.532;11.156;2023-11-19T14:04:44;10.90;99.90
15274;DHT22;7738;49.532;11.156;2023-11-19T14:07:15;11.00;99.90
15274;DHT22;7738;49.532;11.156;2023-11-19T14:09:47;11.00;99.90
15274;DHT22;7738;49.532;11.156;2023-11-19T14:12:18;11.00;99.90
15274;DHT22;7738;49.532;11.156;2023-11-19T14:14:48;10.90;99.90
15274;DHT22;7738;49.532;11.156;2023-11-19T14:17:18;11.10;99.90
15274;DHT22;7738;49.532;11.156;2023-11-19T14:19:48;11.10;99.90
15274;DHT22;7738;49.532;11.156;2023-11-19T14:22:19;11.10;99.90
15274;DHT22;7738;49.532;11.156;2023-11-19T14:24:51;11.30;99.90
15274;DHT22;7738;49.532;11.156;2023-11-19T14:27:22;11.40;99.90
15274;DHT22;7738;49.532;11.156;2023-11-19T14:29:52;11.40;99.90
15274;DHT22;7738;49.532;11.156;2023-11-19T14:32:22;11.40;99.90
15274;DHT22;7738;49.532;11.156;2023-11-19T14:34:52;11.40;99.90
15274;DHT22;7738;49.532;11.156;2023-11-19T14:37:22;11.50;99.90
15274;DHT22;7738;49.532;11.156;2023-11-19T14:39:55;11.60;99.90
15274;DHT22;7738;49.532;11.156;2023-11-19T14:42:26;11.60;99.90
15274;DHT22;7738;49.532;11.156;2023-11-19T14:44:56;11.70;99.90
15274;DHT22;7738;49.532;11.156;2023-11-19T14:47:27;11.60;99.90
15274;DHT22;7738;49.532;11.156;2023-11-19T14:49:57;11.50;99.90
15274;DHT22;7738;49.532;11.156;2023-11-19T14:52:28;11.50;99.90
15274;DHT22;7738;49.532;11.156;2023-11-19T14:55:01;11.50;99.90
15274;DHT22;7738;49.532;11.156;2023-11-19T14:57:31;11.50;99.90
15274;DHT22;7738;49.532;11.156;2023-11-19T15:00:04;11.30;99.90
15274;DHT22;7738;49.532;11.156;2023-11-19T15:02:40;11.20;99.90
15274;DHT22;7738;49.532;11.156;2023-11-19T15:05:11;11.30;99.90
15274;DHT22;7738;49.532;11.156;2023-11-19T15:07:41;11.20;99.90
15274;DHT22;7738;49.532;11.156;2023-11-19T15:10:14;11.10;99.90
15274;DHT22;7738;49.532;11.156;2023-11-19T15:12:44;11.10;99.90
15274;DHT22;7738;49.532;11.156;2023-11-19T15:15:14;11.10;99.90
15274;DHT22;7738;49.532;11.156;2023-11-19T15:18:02;11.10;99.90
15274;DHT22;7738;49.532;11.156;2023-11-19T15:20:32;10.90;99.90
15274;DHT22;7738;49.532;11.156;2023-11-19T15:23:03;10.80;99.90
15274;DHT22;7738;49.532;11.156;2023-11-19T15:25:39;10.70;99.90
15274;DHT22;7738;49.532;11.156;2023-11-19T15:28:09;10.60;99.90
15274;DHT22;7738;49.532;11.156;2023-11-19T15:30:39;10.50;99.90
15274;DHT22;7738;49.532;11.156;2023-11-19T15:33:10;10.40;99.90
15274;DHT22;7738;49.532;11.156;2023-11-19T15:35:40;10.30;99.90
15274;DHT22;7738;49.532;11.156;2023-11-19T15:38:10;10.10;99.90
15274;DHT22;7738;49.532;11.156;2023-11-19T15:40:42;10.00;99.90
15274;DHT22;7738;49.532;11.156;2023-11-19T15:43:13;10.00;99.90
15274;DHT22;7738;49.532;11.156;2023-11-19T15:50:45;9.80;99.90
15274;DHT22;7738;49.532;11.156;2023-11-19T15:53:15;9.80;99.90
15274;DHT22;7738;49.532;11.156;2023-11-19T15:55:48;9.70;99.90
15274;DHT22;7738;49.532;11.156;2023-11-19T15:58:20;9.60;99.90
15274;DHT22;7738;49.532;11.156;2023-11-19T16:00:50;9.60;99.90
15274;DHT22;7738;49.532;11.156;2023-11-19T16:03:21;9.50;99.90
15274;DHT22;7738;49.532;11.156;2023-11-19T16:05:51;9.40;99.90
15274;DHT22;7738;49.532;11.156;2023-11-19T16:08:35;9.30;99.90
15274;DHT22;7738;49.532;11.156;2023-11-19T16:11:09;9.30;99.90
15274;DHT22;7738;49.532;11.156;2023-11-19T16:13:41;9.20;99.90
15274;DHT22;7738;49.532;11.156;2023-11-19T16:16:11;9.20;99.90
15274;DHT22;7738;49.532;11.156;2023-11-19T16:18:41;9.10;99.90
15274;DHT22;7738;49.532;11.156;2023-11-19T16:21:11;9.10;99.90
15274;DHT22;7738;49.532;11.156;2023-11-19T16:23:41;9.00;99.90
15274;DHT22;7738;49.532;11.156;2023-11-19T16:26:14;9.00;99.90
15274;DHT22;7738;49.532;11.156;2023-11-19T16:28:45;9.00;99.90
15274;DHT22;7738;49.532;11.156;2023-11-19T16:31:15;8.90;99.90
15274;DHT22;7738;49.532;11.156;2023-11-19T16:33:45;8.80;99.90
15274;DHT22;7738;49.532;11.156;2023-11-19T16:36:16;8.70;99.90
15274;DHT22;7738;49.532;11.156;2023-11-19T16:38:46;8.60;99.90
15274;DHT22;7738;49.532;11.156;2023-11-19T16:41:21;8.50;99.90
15274;DHT22;7738;49.532;11.156;2023-11-19T16:44:06;8.50;99.90
15274;DHT22;7738;49.532;11.156;2023-11-19T16:46:37;8.50;99.90
15274;DHT22;7738;49.532;11.156;2023-11-19T16:49:07;8.40;99.90
15274;DHT22;7738;49.532;11.156;2023-11-19T16:51:37;8.30;99.90
15274;DHT22;7738;49.532;11.156;2023-11-19T16:54:07;8.30;99.90
15274;DHT22;7738;49.532;11.156;2023-11-19T16:56:41;8.20;99.90
15274;DHT22;7738;49.532;11.156;2023-11-19T16:59:11;8.20;99.90
15274;DHT22;7738;49.532;11.156;2023-11-19T17:01:42;8.30;99.90
15274;DHT22;7738;49.532;11.156;2023-11-19T17:04:13;8.20;99.90
15274;DHT22;7738;49.532;11.156;2023-11-19T17:06:46;8.30;99.90
15274;DHT22;7738;49.532;11.156;2023-11-19T17:09:17;8.30;99.90
15274;DHT22;7738;49.532;11.156;2023-11-19T17:11:49;8.50;99.90
15274;DHT22;7738;49.532;11.156;2023-11-19T17:14:19;9.60;99.90
15274;DHT22;7738;49.532;11.156;2023-11-19T17:17:06;8.80;99.90
15274;DHT22;7738;49.532;11.156;2023-11-19T17:19:36;9.00;99.90
15274;DHT22;7738;49.532;11.156;2023-11-19T17:22:08;9.00;99.90
15274;DHT22;7738;49.532;11.156;2023-11-19T17:24:38;9.10;99.90
15274;DHT22;7738;49.532;11.156;2023-11-19T17:27:11;9.20;99.90
15274;DHT22;7738;49.532;11.156;2023-11-19T17:29:42;9.10;99.90
15274;DHT22;7738;49.532;11.156;2023-11-19T17:32:12;9.00;99.90
15274;DHT22;7738;49.532;11.156;2023-11-19T17:34:42;9.00;99.90
15274;DHT22;7738;49.532;11.156;2023-11-19T17:37:13;9.20;99.90
15274;DHT22;7738;49.532;11.156;2023-11-19T17:39:44;8.90;99.90
15274;DHT22;7738;49.532;11.156;2023-11-19T17:42:17;9.00;99.90
15274;DHT22;7738;49.532;11.156;2023-11-19T17:44:49;8.90;99.90
15274;DHT22;7738;49.532;11.156;2023-11-19T17:47:20;8.80;99.90
15274;DHT22;7738;49.532;11.156;2023-11-19T17:49:50;8.80;99.90
15274;DHT22;7738;49.532;11.156;2023-11-19T17:52:21;8.70;99.90
15274;DHT22;7738;49.532;11.156;2023-11-19T17:54:51;8.70;99.90
15274;DHT22;7738;49.532;11.156;2023-11-19T17:57:24;8.60;99.90
15274;DHT22;7738;49.532;11.156;2023-11-19T17:59:54;8.50;99.90
15274;DHT22;7738;49.532;11.156;2023-11-19T18:02:24;8.70;99.90
15274;DHT22;7738;49.532;11.156;2023-11-19T18:04:57;8.80;99.90
15274;DHT22;7738;49.532;11.156;2023-11-19T18:07:28;8.70;99.90
15274;DHT22;7738;49.532;11.156;2023-11-19T18:09:58;8.70;99.90
15274;DHT22;7738;49.532;11.156;2023-11-19T18:12:32;8.60;99.90
15274;DHT22;7738;49.532;11.156;2023-11-19T18:15:04;8.70;99.90
15274;DHT22;7738;49.532;11.156;2023-11-19T18:17:34;8.60;99.90
15274;DHT22;7738;49.532;11.156;2023-11-19T18:20:10;8.60;99.90
15274;DHT22;7738;49.532;11.156;2023-11-19T18:22:43;8.70;99.90
15274;DHT22;7738;49.532;11.156;2023-11-19T18:25:15;8.70;99.90
15274;DHT22;7738;49.532;11.156;2023-11-19T18:27:48;8.70;99.90
15274;DHT22;7738;49.532;11.156;2023-11-19T18:30:18;8.70;99.90
15274;DHT22;7738;49.532;11.156;2023-11-19T18:32:49;8.60;99.90
15274;DHT22;7738;49.532;11.156;2023-11-19T18:35:19;8.50;99.90
15274;DHT22;7738;49.532;11.156;2023-11-19T18:37:51;8.50;99.90
15274;DHT22;7738;49.532;11.156;2023-11-19T18:40:22;8.50;99.90
15274;DHT22;7738;49.532;11.156;2023-11-19T18:42:55;9.50;99.90
15274;DHT22;7738;49.532;11.156;2023-11-19T18:45:25;8.40;99.90
15274;DHT22;7738;49.532;11.156;2023-11-19T18:47:55;8.50;99.90
15274;DHT22;7738;49.532;11.156;2023-11-19T18:50:26;8.50;99.90
15274;DHT22;7738;49.532;11.156;2023-11-19T18:53:16;8.60;99.90
15274;DHT22;7738;49.532;11.156;2023-11-19T18:55:48;8.50;99.90
15274;DHT22;7738;49.532;11.156;2023-11-19T18:58:20;8.30;99.90
15274;DHT22;7738;49.532;11.156;2023-11-19T19:00:51;7.00;99.90
15274;DHT22;7738;49.532;11.156;2023-11-19T19:03:21;8.20;99.90
15274;DHT22;7738;49.532;11.156;2023-11-19T19:05:53;8.20;99.90
15274;DHT22;7738;49.532;11.156;2023-11-19T19:08:24;8.30;99.90
15274;DHT22;7738;49.532;11.156;2023-11-19T19:10:54;8.50;99.90
15274;DHT22;7738;49.532;11.156;2023-11-19T19:13:27;8.50;99.90
15274;DHT22;7738;49.532;11.156;2023-11-19T19:15:57;8.60;99.90
15274;DHT22;7738;49.532;11.156;2023-11-19T19:18:27;8.60;99.90
15274;DHT22;7738;49.532;11.156;2023-11-19T19:20:57;8.70;99.90
15274;DHT22;7738;49.532;11.156;2023-11-19T19:23:28;8.70;99.90
15274;DHT22;7738;49.532;11.156;2023-11-19T19:25:58;8.70;99.90
15274;DHT22;7738;49.532;11.156;2023-11-19T19:28:30;8.70;99.90
15274;DHT22;7738;49.532;11.156;2023-11-19T19:31:05;8.60;99.90
15274;DHT22;7738;49.532;11.156;2023-11-19T19:33:35;8.60;99.90
15274;DHT22;7738;49.532;11.156;2023-11-19T19:36:07;8.50;99.90
15274;DHT22;7738;49.532;11.156;2023-11-19T19:38:38;8.40;99.90
15274;DHT22;7738;49.532;11.156;2023-11-19T19:41:08;8.40;99.90
15274;DHT22;7738;49.532;11.156;2023-11-19T19:43:41;8.30;99.90
15274;DHT22;7738;49.532;11.156;2023-11-19T19:46:11;8.20;99.90
15274;DHT22;7738;49.532;11.156;2023-11-19T19:48:41;8.20;99.90
15274;DHT22;7738;49.532;11.156;2023-11-19T19:51:11;8.20;99.90
15274;DHT22;7738;49.532;11.156;2023-11-19T19:53:42;8.30;99.90
15274;DHT22;7738;49.532;11.156;2023-11-19T19:56:13;8.30;99.90
15274;DHT22;7738;49.532;11.156;2023-11-19T19:58:46;8.40;99.90
15274;DHT22;7738;49.532;11.156;2023-11-19T20:01:16;8.40;99.90
15274;DHT22;7738;49.532;11.156;2023-11-19T20:03:46;8.40;99.90
15274;DHT22;7738;49.532;11.156;2023-11-19T20:06:18;8.40;99.90
15274;DHT22;7738;49.532;11.156;2023-11-19T20:08:48;8.30;99.90
15274;DHT22;7738;49.532;11.156;2023-11-19T20:11:19;8.30;99.90
15274;DHT22;7738;49.532;11.156;2023-11-19T20:13:52;8.30;99.90
15274;DHT22;7738;49.532;11.156;2023-11-19T20:16:22;8.30;99.90
15274;DHT22;7738;49.532;11.156;2023-11-19T20:18:52;8.30;99.90
15274;DHT22;7738;49.532;11.156;2023-11-19T20:21:22;8.40;99.90
15274;DHT22;7738;49.532;11.156;2023-11-19T20:23:52;8.30;99.90
15274;DHT22;7738;49.532;11.156;2023-11-19T20:26:23;8.40;99.90
15274;DHT22;7738;49.532;11.156;2023-11-19T20:28:55;8.40;99.90
15274;DHT22;7738;49.532;11.156;2023-11-19T20:31:29;8.30;99.90
15274;DHT22;7738;49.532;11.156;2023-11-19T20:33:59;8.30;99.90
15274;DHT22;7738;49.532;11.156;2023-11-19T20:36:30;8.30;99.90
15274;DHT22;7738;49.532;11.156;2023-11-19T20:39:00;8.30;99.90
15274;DHT22;7738;49.532;11.156;2023-11-19T20:41:30;8.20;99.90
15274;DHT22;7738;49.532;11.156;2023-11-19T20:44:03;8.10;99.90
15274;DHT22;7738;49.532;11.156;2023-11-19T20:46:35;8.00;99.90
15274;DHT22;7738;49.532;11.156;2023-11-19T20:49:05;7.90;99.90
15274;DHT22;7738;49.532;11.156;2023-11-19T20:51:35;7.90;99.90
15274;DHT22;7738;49.532;11.156;2023-11-19T20:54:07;7.80;99.90
15274;DHT22;7738;49.532;11.156;2023-11-19T20:56:37;7.80;99.90
15274;DHT22;7738;49.532;11.156;2023-11-19T20:59:11;7.70;99.90
15274;DHT22;7738;49.532;11.156;2023-11-19T21:01:43;7.60;99.90
15274;DHT22;7738;49.532;11.156;2023-11-19T21:04:13;7.60;99.90
15274;DHT22;7738;49.532;11.156;2023-11-19T21:06:44;7.50;99.90
15274;DHT22;7738;49.532;11.156;2023-11-19T21:09:17;7.50;99.90
15274;DHT22;7738;49.532;11.156;2023-11-19T21:11:47;7.40;99.90
15274;DHT22;7738;49.532;11.156;2023-11-19T21:14:20;7.30;99.90
15274;DHT22;7738;49.532;11.156;2023-11-19T21:16:51;7.30;99.90
15274;DHT22;7738;49.532;11.156;2023-11-19T21:19:22;7.30;99.90
15274;DHT22;7738;49.532;11.156;2023-11-19T21:22:12;7.30;99.90
15274;DHT22;7738;49.532;11.156;2023-11-19T21:24:42;7.30;99.90
15274;DHT22;7738;49.532;11.156;2023-11-19T21:27:14;7.30;99.90
15274;DHT22;7738;49.532;11.156;2023-11-19T21:29:47;7.30;99.90
15274;DHT22;7738;49.532;11.156;2023-11-19T21:32:17;7.20;99.90
15274;DHT22;7738;49.532;11.156;2023-11-19T21:34:47;7.10;99.90
15274;DHT22;7738;49.532;11.156;2023-11-19T21:37:18;7.10;99.90
15274;DHT22;7738;49.532;11.156;2023-11-19T21:39:48;7.10;99.90
15274;DHT22;7738;49.532;11.156;2023-11-19T21:42:18;7.00;99.90
15274;DHT22;7738;49.532;11.156;2023-11-19T21:44:51;7.00;99.90
15274;DHT22;7738;49.532;11.156;2023-11-19T21:47:21;7.00;99.90
15274;DHT22;7738;49.532;11.156;2023-11-19T21:49:51;7.00;99.90
15274;DHT22;7738;49.532;11.156;2023-11-19T21:52:22;7.00;99.90
15274;DHT22;7738;49.532;11.156;2023-11-19T21:54:52;7.00;99.90
15274;DHT22;7738;49.532;11.156;2023-11-19T21:57:22;6.90;99.90
15274;DHT22;7738;49.532;11.156;2023-11-19T21:59:52;6.90;99.90
15274;DHT22;7738;49.532;11.156;2023-11-19T22:02:23;7.00;99.90
15274;DHT22;7738;49.532;11.156;2023-11-19T22:04:54;7.10;99.90
15274;DHT22;7738;49.532;11.156;2023-11-19T22:07:24;7.20;99.90
15274;DHT22;7738;49.532;11.156;2023-11-19T22:09:54;7.20;99.90
15274;DHT22;7738;49.532;11.156;2023-11-19T22:14:57;7.30;99.90
15274;DHT22;7738;49.532;11.156;2023-11-19T22:17:27;7.40;99.90
15274;DHT22;7738;49.532;11.156;2023-11-19T22:19:57;7.30;99.90
15274;DHT22;7738;49.532;11.156;2023-11-19T22:22:27;7.40;99.90
15274;DHT22;7738;49.532;11.156;2023-11-19T22:24:58;7.30;99.90
15274;DHT22;7738;49.532;11.156;2023-11-19T22:27:28;7.30;99.90
15274;DHT22;7738;49.532;11.156;2023-11-19T22:30:01;7.30;99.90
15274;DHT22;7738;49.532;11.156;2023-11-19T22:32:31;7.30;99.90
15274;DHT22;7738;49.532;11.156;2023-11-19T22:35:01;7.40;99.90
15274;DHT22;7738;49.532;11.156;2023-11-19T22:40:02;7.50;99.90
15274;DHT22;7738;49.532;11.156;2023-11-19T22:42:33;7.50;99.90
15274;DHT22;7738;49.532;11.156;2023-11-19T22:45:08;7.60;99.90
15274;DHT22;7738;49.532;11.156;2023-11-19T22:47:41;7.60;99.90
15274;DHT22;7738;49.532;11.156;2023-11-19T22:52:42;7.70;99.90
15274;DHT22;7738;49.532;11.156;2023-11-19T22:55:13;7.80;99.90
15274;DHT22;7738;49.532;11.156;2023-11-19T22:57:43;7.80;99.90
15274;DHT22;7738;49.532;11.156;2023-11-19T23:00:19;7.90;99.90
15274;DHT22;7738;49.532;11.156;2023-11-19T23:05:27;8.00;99.90
15274;DHT22;7738;49.532;11.156;2023-11-19T23:07:59;8.00;99.90
15274;DHT22;7738;49.532;11.156;2023-11-19T23:10:31;8.00;99.90
15274;DHT22;7738;49.532;11.156;2023-11-19T23:15:35;8.10;99.90
15274;DHT22;7738;49.532;11.156;2023-11-19T23:18:08;8.20;99.90
15274;DHT22;7738;49.532;11.156;2023-11-19T23:20:39;8.30;99.90
15274;DHT22;7738;49.532;11.156;2023-11-19T23:23:09;8.30;99.90
15274;DHT22;7738;49.532;11.156;2023-11-19T23:25:41;8.30;99.90
15274;DHT22;7738;49.532;11.156;2023-11-19T23:28:11;8.30;99.90
15274;DHT22;7738;49.532;11.156;2023-11-19T23:30:44;8.30;99.90
15274;DHT22;7738;49.532;11.156;2023-11-19T23:33:15;8.20;99.90
15274;DHT22;7738;49.532;11.156;2023-11-19T23:35:45;8.20;99.90
15274;DHT22;7738;49.532;11.156;2023-11-19T23:38:15;8.20;99.90
15274;DHT22;7738;49.532;11.156;2023-11-19T23:40:45;8.20;99.90
15274;DHT22;7738;49.532;11.156;2023-11-19T23:43:16;8.20;99.90
15274;DHT22;7738;49.532;11.156;2023-11-19T23:45:49;8.10;99.90
15274;DHT22;7738;49.532;11.156;2023-11-19T23:48:20;8.10;99.90
15274;DHT22;7738;49.532;11.156;2023-11-19T23:50:50;8.10;99.90
15274;DHT22;7738;49.532;11.156;2023-11-19T23:53:25;8.10;99.90
15274;DHT22;7738;49.532;11.156;2023-11-19T23:55:55;8.20;99.90
